Time;durP1;ratioP1;P1;durP2;ratioP2;P2;SDS_P1;SDS_P2;PMS_P1;PMS_P2;Temp;Humidity;BMP_temperature;BMP_pressure;BME280_temperature;BME280_humidity;BME280_pressure;Samples;Min_cycle;Max_cycle;Signal;HPM_P1;HPM_P2
2022/06/08 00:02:25;;;;;;;22.80;20.43;;;;;;;;;;5136032;27;20485;-73
2022/06/08 00:04:52;;;;;;;25.20;22.47;;;;;;;;;;5135785;27;20880;-73
2022/06/08 00:07:19;;;;;;;24.13;21.53;;;;;;;;;;5136296;27;20779;-72
2022/06/08 00:09:46;;;;;;;22.50;20.00;;;;;;;;;;5135735;27;20443;-72
2022/06/08 00:12:15;;;;;;;26.37;22.13;;;;;;;;;;5135480;27;20445;-72
2022/06/08 00:14:42;;;;;;;27.60;24.10;;;;;;;;;;5135605;27;20565;-72
2022/06/08 00:17:10;;;;;;;28.47;22.80;;;;;;;;;;5135230;27;20498;-72
2022/06/08 00:19:37;;;;;;;24.17;21.60;;;;;;;;;;5135525;27;20441;-74
2022/06/08 00:22:04;;;;;;;27.13;21.97;;;;;;;;;;5135290;27;20995;-73
2022/06/08 00:24:32;;;;;;;22.47;20.07;;;;;;;;;;5135085;27;20565;-74
2022/06/08 00:27:00;;;;;;;25.63;20.33;;;;;;;;;;5135822;27;20446;-72
2022/06/08 00:29:29;;;;;;;24.43;21.80;;;;;;;;;;5135114;27;20952;-73
2022/06/08 00:31:56;;;;;;;24.03;21.03;;;;;;;;;;5134620;27;20929;-73
2022/06/08 00:34:24;;;;;;;24.13;21.60;;;;;;;;;;5135296;27;20850;-73
2022/06/08 00:36:51;;;;;;;24.30;21.73;;;;;;;;;;5135333;27;20442;-73
2022/06/08 00:39:18;;;;;;;26.87;21.90;;;;;;;;;;5134884;27;20439;-73
2022/06/08 00:41:48;;;;;;;26.87;21.30;;;;;;;;;;5134997;27;20439;-74
2022/06/08 00:44:18;;;;;;;29.17;22.53;;;;;;;;;;5135014;27;20532;-73
2022/06/08 00:46:47;;;;;;;25.90;22.77;;;;;;;;;;5134910;27;20433;-73
2022/06/08 00:49:17;;;;;;;28.93;24.17;;;;;;;;;;5134900;27;20480;-73
2022/06/08 00:51:45;;;;;;;26.07;23.23;;;;;;;;;;5135118;27;20893;-72
2022/06/08 00:54:17;;;;;;;27.20;24.07;;;;;;;;;;5134678;27;20442;-72
2022/06/08 00:56:46;;;;;;;25.40;22.63;;;;;;;;;;5135581;27;20443;-72
2022/06/08 00:59:13;;;;;;;28.90;23.03;;;;;;;;;;5134995;27;20969;-72
2022/06/08 01:01:41;;;;;;;30.17;23.27;;;;;;;;;;5134836;27;20438;-73
2022/06/08 01:04:13;;;;;;;26.80;22.80;;;;;;;;;;5134452;27;20479;-72
2022/06/08 01:06:41;;;;;;;26.93;24.03;;;;;;;;;;5134506;27;20848;-72
2022/06/08 01:09:13;;;;;;;29.20;24.17;;;;;;;;;;5134426;27;21166;-72
2022/06/08 01:11:43;;;;;;;32.90;23.17;;;;;;;;;;5134718;27;20527;-72
2022/06/08 01:14:12;;;;;;;30.70;25.50;;;;;;;;;;5134980;27;20567;-72
2022/06/08 01:16:41;;;;;;;26.63;23.03;;;;;;;;;;5134201;27;21011;-72
2022/06/08 01:19:10;;;;;;;27.60;22.57;;;;;;;;;;5134696;27;20488;-72
2022/06/08 01:21:59;;;;;;;28.73;24.77;;;;;;;;;;5134121;27;20442;-71
2022/06/08 01:24:27;;;;;;;28.37;24.47;;;;;;;;;;5134221;27;20952;-72
2022/06/08 01:27:05;;;;;;;26.77;23.30;;;;;;;;;;5134447;27;20813;-72
2022/06/08 01:29:37;;;;;;;28.83;23.57;;;;;;;;;;5134505;27;20823;-72
2022/06/08 01:32:07;;;;;;;28.80;24.13;;;;;;;;;;5134955;27;20446;-72
2022/06/08 01:34:39;;;;;;;28.77;25.60;;;;;;;;;;5135043;27;20859;-71
2022/06/08 01:37:13;;;;;;;28.37;23.87;;;;;;;;;;5134372;27;20850;-72
2022/06/08 01:39:47;;;;;;;29.07;24.23;;;;;;;;;;5134524;28;20922;-71
2022/06/08 01:42:20;;;;;;;30.30;24.93;;;;;;;;;;5133996;28;20925;-71
2022/06/08 01:47:46;;;;;;;30.23;25.87;;;;;;;;;;5138524;27;20493;-72
2022/06/08 01:50:17;;;;;;;29.00;25.90;;;;;;;;;;5138691;27;20503;-71
2022/06/08 01:52:52;;;;;;;29.97;25.60;;;;;;;;;;5138320;27;20978;-72
2022/06/08 01:55:23;;;;;;;38.30;28.00;;;;;;;;;;5138617;27;20553;-71
2022/06/08 01:57:54;;;;;;;31.50;27.33;;;;;;;;;;5138842;27;20501;-72
2022/06/08 02:00:23;;;;;;;32.13;27.30;;;;;;;;;;5138535;27;20430;-72
2022/06/08 02:02:55;;;;;;;32.73;27.77;;;;;;;;;;5138336;27;20444;-72
2022/06/08 02:05:24;;;;;;;36.20;28.40;;;;;;;;;;5137826;27;20462;-72
2022/06/08 02:07:57;;;;;;;40.10;29.40;;;;;;;;;;5138212;27;20525;-72
2022/06/08 02:10:26;;;;;;;37.40;29.10;;;;;;;;;;5137983;27;20432;-72
2022/06/08 02:12:56;;;;;;;33.37;28.10;;;;;;;;;;5138062;27;20531;-72
2022/06/08 02:15:26;;;;;;;38.10;27.67;;;;;;;;;;5137681;27;20462;-71
2022/06/08 02:17:55;;;;;;;36.50;29.37;;;;;;;;;;5137886;27;20919;-72
2022/06/08 02:20:24;;;;;;;33.70;28.63;;;;;;;;;;5137847;27;20828;-71
2022/06/08 02:22:53;;;;;;;37.57;28.20;;;;;;;;;;5137670;27;20553;-72
2022/06/08 02:25:25;;;;;;;37.47;29.60;;;;;;;;;;5137428;27;20475;-71
2022/06/08 02:27:56;;;;;;;39.20;28.87;;;;;;;;;;5138015;27;20831;-73
2022/06/08 02:30:25;;;;;;;32.97;27.67;;;;;;;;;;5138075;27;20770;-72
2022/06/08 02:35:43;;;;;;;37.50;29.23;;;;;;;;;;5137557;27;20452;-71
2022/06/08 02:38:11;;;;;;;41.23;29.43;;;;;;;;;;5137692;27;20467;-72
2022/06/08 02:40:43;;;;;;;38.30;31.27;;;;;;;;;;5137541;27;20436;-71
2022/06/08 02:43:13;;;;;;;43.13;32.73;;;;;;;;;;5138158;27;20845;-72
2022/06/08 02:45:42;;;;;;;45.70;35.13;;;;;;;;;;5137073;27;20996;-71
2022/06/08 02:48:10;;;;;;;48.57;34.73;;;;;;;;;;5137714;27;20964;-71
2022/06/08 02:50:39;;;;;;;44.60;35.37;;;;;;;;;;5138044;27;20533;-72
2022/06/08 02:53:09;;;;;;;43.63;32.90;;;;;;;;;;5136960;27;20840;-71
2022/06/08 02:55:39;;;;;;;45.80;35.00;;;;;;;;;;5136948;27;20525;-71
2022/06/08 02:58:11;;;;;;;45.80;34.67;;;;;;;;;;5136927;27;20497;-72
2022/06/08 03:00:41;;;;;;;48.40;34.03;;;;;;;;;;5136973;27;20439;-71
2022/06/08 03:03:11;;;;;;;49.77;37.00;;;;;;;;;;5136797;27;20535;-71
2022/06/08 03:05:41;;;;;;;45.23;35.87;;;;;;;;;;5137002;27;20485;-72
2022/06/08 03:08:10;;;;;;;50.80;37.97;;;;;;;;;;5137013;27;20476;-72
2022/06/08 03:10:38;;;;;;;50.83;37.17;;;;;;;;;;5136992;27;20445;-71
2022/06/08 03:13:07;;;;;;;53.93;38.40;;;;;;;;;;5136654;27;20473;-71
2022/06/08 03:15:36;;;;;;;49.90;37.20;;;;;;;;;;5136636;27;20449;-72
2022/06/08 03:18:03;;;;;;;53.57;39.03;;;;;;;;;;5136348;27;20494;-71
2022/06/08 03:20:31;;;;;;;60.37;41.83;;;;;;;;;;5136845;27;20519;-73
2022/06/08 03:22:58;;;;;;;58.80;41.37;;;;;;;;;;5136479;27;20523;-72
2022/06/08 03:25:25;;;;;;;61.27;41.90;;;;;;;;;;5136721;27;20557;-72
2022/06/08 03:27:53;;;;;;;61.63;41.80;;;;;;;;;;5136285;27;20447;-72
2022/06/08 03:30:22;;;;;;;63.80;41.90;;;;;;;;;;5136716;27;20455;-74
2022/06/08 03:32:50;;;;;;;67.83;41.03;;;;;;;;;;5136549;27;20510;-73
2022/06/08 03:35:18;;;;;;;79.40;47.50;;;;;;;;;;5136566;27;20807;-72
2022/06/08 03:37:45;;;;;;;70.67;44.67;;;;;;;;;;5136582;27;20476;-72
2022/06/08 03:40:13;;;;;;;76.13;48.03;;;;;;;;;;5136143;27;20995;-72
2022/06/08 03:42:40;;;;;;;72.20;43.97;;;;;;;;;;5136347;27;20461;-73
2022/06/08 03:45:09;;;;;;;72.60;44.30;;;;;;;;;;5136433;27;20559;-72
2022/06/08 03:47:38;;;;;;;70.07;44.70;;;;;;;;;;5136220;27;20437;-72
2022/06/08 03:50:09;;;;;;;73.77;44.33;;;;;;;;;;5135887;27;20502;-70
2022/06/08 03:52:38;;;;;;;71.73;44.97;;;;;;;;;;5135852;27;20466;-70
2022/06/08 03:55:07;;;;;;;73.33;45.20;;;;;;;;;;5135804;27;20448;-69
2022/06/08 03:57:35;;;;;;;65.47;45.10;;;;;;;;;;5136420;27;20514;-69
2022/06/08 04:00:02;;;;;;;70.43;44.87;;;;;;;;;;5135751;27;20434;-69
2022/06/08 04:02:30;;;;;;;66.23;41.93;;;;;;;;;;5134490;27;20440;-68
2022/06/08 04:04:57;;;;;;;64.67;41.70;;;;;;;;;;5135521;27;20481;-68
2022/06/08 04:07:26;;;;;;;69.10;41.13;;;;;;;;;;5134576;27;20437;-68
2022/06/08 04:09:53;;;;;;;64.00;42.23;;;;;;;;;;5135621;27;20431;-68
2022/06/08 04:12:22;;;;;;;67.50;42.40;;;;;;;;;;5135293;27;20454;-68
2022/06/08 04:14:50;;;;;;;61.10;40.10;;;;;;;;;;5135179;27;20466;-68
2022/06/08 04:17:17;;;;;;;64.87;41.10;;;;;;;;;;5135158;27;20983;-68
2022/06/08 04:19:47;;;;;;;64.27;41.53;;;;;;;;;;5135479;27;20439;-68
2022/06/08 04:22:14;;;;;;;65.80;43.03;;;;;;;;;;5135582;27;20529;-68
2022/06/08 04:24:43;;;;;;;61.00;41.30;;;;;;;;;;5135237;27;20973;-69
2022/06/08 04:27:10;;;;;;;63.97;41.30;;;;;;;;;;5135024;27;20450;-68
2022/06/08 04:29:38;;;;;;;63.57;40.90;;;;;;;;;;5134935;27;20526;-69
2022/06/08 04:32:07;;;;;;;63.77;41.67;;;;;;;;;;5134952;27;20529;-68
2022/06/08 04:34:35;;;;;;;61.53;40.13;;;;;;;;;;5135063;27;20438;-69
2022/06/08 04:37:02;;;;;;;54.43;37.93;;;;;;;;;;5135519;27;20871;-69
2022/06/08 04:39:29;;;;;;;48.20;35.60;;;;;;;;;;5135116;27;20785;-69
2022/06/08 04:41:58;;;;;;;50.60;35.97;;;;;;;;;;5135112;27;20487;-69
2022/06/08 04:44:26;;;;;;;50.87;35.77;;;;;;;;;;5134583;27;20457;-69
2022/06/08 04:46:53;;;;;;;49.03;35.53;;;;;;;;;;5134757;27;20533;-69
2022/06/08 04:49:21;;;;;;;46.33;34.20;;;;;;;;;;5134368;27;20477;-69
2022/06/08 04:51:48;;;;;;;48.30;34.57;;;;;;;;;;5134949;27;20442;-69
2022/06/08 04:54:16;;;;;;;48.77;34.73;;;;;;;;;;5134711;27;20438;-69
2022/06/08 04:56:44;;;;;;;46.93;32.47;;;;;;;;;;5134588;27;20499;-69
2022/06/08 04:59:13;;;;;;;47.77;33.33;;;;;;;;;;5134481;27;20445;-69
2022/06/08 05:01:40;;;;;;;45.67;32.53;;;;;;;;;;5134636;27;20792;-68
2022/06/08 05:04:07;;;;;;;45.07;31.13;;;;;;;;;;5134904;27;20477;-69
2022/06/08 05:06:34;;;;;;;40.53;30.07;;;;;;;;;;5134610;27;20482;-69
2022/06/08 05:09:02;;;;;;;35.90;30.47;;;;;;;;;;5134779;27;20436;-69
2022/06/08 05:11:29;;;;;;;36.77;29.43;;;;;;;;;;5134754;27;20429;-68
2022/06/08 05:13:56;;;;;;;37.87;28.30;;;;;;;;;;5134301;27;20529;-69
2022/06/08 05:16:25;;;;;;;37.17;26.87;;;;;;;;;;5134409;27;20451;-69
2022/06/08 05:18:52;;;;;;;28.70;25.10;;;;;;;;;;5133984;27;20542;-69
2022/06/08 05:21:20;;;;;;;35.23;25.80;;;;;;;;;;5134293;27;20470;-69
2022/06/08 05:23:47;;;;;;;32.50;25.83;;;;;;;;;;5134692;27;20473;-69
2022/06/08 05:26:14;;;;;;;27.80;23.43;;;;;;;;;;5135016;27;20562;-69
2022/06/08 05:28:42;;;;;;;30.57;23.60;;;;;;;;;;5135047;27;20459;-68
2022/06/08 05:31:09;;;;;;;26.73;23.83;;;;;;;;;;5134796;27;20442;-68
2022/06/08 05:33:38;;;;;;;34.90;25.40;;;;;;;;;;5134035;27;20438;-69
2022/06/08 05:36:06;;;;;;;30.00;24.27;;;;;;;;;;5134471;27;20534;-69
2022/06/08 05:38:33;;;;;;;28.50;23.77;;;;;;;;;;5134225;27;20503;-69
2022/06/08 05:41:00;;;;;;;31.53;22.33;;;;;;;;;;5133991;27;20474;-68
2022/06/08 05:43:28;;;;;;;40.07;30.30;;;;;;;;;;5134506;28;20471;-68
2022/06/08 05:45:55;;;;;;;27.37;22.50;;;;;;;;;;5133943;28;20474;-69
2022/06/08 05:48:22;;;;;;;22.43;19.87;;;;;;;;;;5134103;28;20490;-68
2022/06/08 05:50:52;;;;;;;27.43;19.60;;;;;;;;;;5134540;28;20500;-69
2022/06/08 05:53:19;;;;;;;24.70;19.70;;;;;;;;;;5134188;28;20445;-68
2022/06/08 05:55:46;;;;;;;20.47;18.37;;;;;;;;;;5134090;28;20455;-68
2022/06/08 05:58:14;;;;;;;20.43;17.57;;;;;;;;;;5133839;28;20525;-69
2022/06/08 06:00:42;;;;;;;22.87;18.40;;;;;;;;;;5134050;28;20436;-68
2022/06/08 06:03:09;;;;;;;21.97;18.57;;;;;;;;;;5134666;28;20442;-68
2022/06/08 06:05:38;;;;;;;20.93;17.43;;;;;;;;;;5133955;28;20928;-69
2022/06/08 06:08:07;;;;;;;18.90;16.90;;;;;;;;;;5134105;28;20478;-69
2022/06/08 06:10:35;;;;;;;19.60;16.87;;;;;;;;;;5133660;28;20968;-69
2022/06/08 06:13:03;;;;;;;20.70;18.40;;;;;;;;;;5134093;28;20939;-70
2022/06/08 06:15:30;;;;;;;20.03;16.07;;;;;;;;;;5133976;28;20574;-69
2022/06/08 06:17:58;;;;;;;17.23;15.43;;;;;;;;;;5134076;28;20470;-69
2022/06/08 06:20:25;;;;;;;20.10;16.20;;;;;;;;;;5133590;28;20473;-69
2022/06/08 06:22:52;;;;;;;19.27;16.07;;;;;;;;;;5133964;28;20540;-69
2022/06/08 06:25:21;;;;;;;17.40;15.57;;;;;;;;;;5133487;28;20566;-70
2022/06/08 06:27:49;;;;;;;16.20;14.50;;;;;;;;;;5133942;28;20458;-69
2022/06/08 06:30:16;;;;;;;17.30;14.23;;;;;;;;;;5135732;27;20496;-69
2022/06/08 06:32:44;;;;;;;16.17;13.50;;;;;;;;;;5138306;27;20474;-69
2022/06/08 06:35:17;;;;;;;14.27;12.70;;;;;;;;;;5137815;27;20447;-70
2022/06/08 06:37:44;;;;;;;14.00;12.40;;;;;;;;;;5137429;27;20426;-69
2022/06/08 06:40:12;;;;;;;16.60;11.80;;;;;;;;;;5137546;27;20452;-69
2022/06/08 06:42:40;;;;;;;17.10;12.10;;;;;;;;;;5137656;27;20435;-69
2022/06/08 06:45:08;;;;;;;14.50;11.70;;;;;;;;;;5137060;27;20538;-69
2022/06/08 06:47:35;;;;;;;12.40;11.20;;;;;;;;;;5137202;27;20535;-69
2022/06/08 06:50:03;;;;;;;12.57;10.83;;;;;;;;;;5137053;27;20474;-69
2022/06/08 06:52:30;;;;;;;10.90;9.87;;;;;;;;;;5137498;27;20442;-69
2022/06/08 06:54:57;;;;;;;12.87;9.53;;;;;;;;;;5137439;27;20511;-69
2022/06/08 06:57:24;;;;;;;12.80;10.07;;;;;;;;;;5136944;27;20539;-70
2022/06/08 06:59:53;;;;;;;12.30;8.27;;;;;;;;;;5137096;27;20440;-69
2022/06/08 07:02:22;;;;;;;10.70;8.80;;;;;;;;;;5137263;27;20524;-70
2022/06/08 07:04:49;;;;;;;10.77;8.37;;;;;;;;;;5136766;27;20521;-69
2022/06/08 07:07:17;;;;;;;9.50;8.23;;;;;;;;;;5136656;27;20465;-69
2022/06/08 07:09:46;;;;;;;8.70;7.50;;;;;;;;;;5137431;27;20478;-69
2022/06/08 07:12:14;;;;;;;7.60;6.80;;;;;;;;;;5136986;27;20446;-69
2022/06/08 07:14:41;;;;;;;8.83;7.93;;;;;;;;;;5137008;27;20445;-69
2022/06/08 07:17:10;;;;;;;6.47;5.87;;;;;;;;;;5136494;27;20509;-68
2022/06/08 07:19:37;;;;;;;7.87;6.80;;;;;;;;;;5136447;27;20524;-72
2022/06/08 07:22:05;;;;;;;7.17;6.30;;;;;;;;;;5136564;27;20471;-70
2022/06/08 07:24:33;;;;;;;7.20;5.50;;;;;;;;;;5136413;27;20449;-68
2022/06/08 07:27:01;;;;;;;6.40;5.37;;;;;;;;;;5136815;27;21048;-70
2022/06/08 07:29:28;;;;;;;6.50;5.97;;;;;;;;;;5136688;27;20447;-69
2022/06/08 07:31:55;;;;;;;8.73;5.80;;;;;;;;;;5136213;27;20520;-69
2022/06/08 07:34:24;;;;;;;6.33;4.77;;;;;;;;;;5136554;27;20470;-69
2022/06/08 07:36:51;;;;;;;6.80;6.10;;;;;;;;;;5136153;27;20631;-69
2022/06/08 07:39:19;;;;;;;5.43;4.93;;;;;;;;;;5136221;27;20480;-70
2022/06/08 07:41:47;;;;;;;5.47;4.60;;;;;;;;;;5135052;27;20444;-69
2022/06/08 07:44:15;;;;;;;8.00;5.27;;;;;;;;;;5136390;27;20445;-69
2022/06/08 07:46:43;;;;;;;5.73;5.10;;;;;;;;;;5135872;27;20476;-69
2022/06/08 07:51:57;;;;;;;6.37;5.77;;;;;;;;;;5136063;27;20533;-69
2022/06/08 07:54:26;;;;;;;5.63;5.13;;;;;;;;;;5136087;27;20511;-68
2022/06/08 07:56:53;;;;;;;6.30;5.70;;;;;;;;;;5136147;27;20540;-69
2022/06/08 07:59:21;;;;;;;5.67;5.07;;;;;;;;;;5136221;27;20985;-69
2022/06/08 08:01:49;;;;;;;6.30;4.70;;;;;;;;;;5135598;27;20927;-70
2022/06/08 08:04:16;;;;;;;5.00;4.60;;;;;;;;;;5136361;27;20440;-69
2022/06/08 08:06:44;;;;;;;6.77;6.10;;;;;;;;;;5135343;27;21025;-69
2022/06/08 08:09:17;;;;;;;7.20;4.27;;;;;;;;;;5136358;27;20448;-69
2022/06/08 08:11:46;;;;;;;4.50;3.47;;;;;;;;;;5120410;27;20435;-69
2022/06/08 08:14:14;;;;;;;6.00;3.30;;;;;;;;;;5114910;28;20962;-69
2022/06/08 08:16:42;;;;;;;3.73;3.43;;;;;;;;;;5115136;28;20528;-69
2022/06/08 08:19:10;;;;;;;5.70;3.37;;;;;;;;;;5115249;28;20462;-69
2022/06/08 08:21:38;;;;;;;4.57;4.13;;;;;;;;;;5114569;28;20441;-69
2022/06/08 08:24:05;;;;;;;3.30;3.10;;;;;;;;;;5114687;28;20438;-69
2022/06/08 08:26:34;;;;;;;3.17;2.63;;;;;;;;;;5114535;28;20506;-69
2022/06/08 08:29:01;;;;;;;3.97;3.27;;;;;;;;;;5115003;28;20537;-69
2022/06/08 08:31:29;;;;;;;4.13;3.73;;;;;;;;;;5114822;28;20521;-69
2022/06/08 08:33:56;;;;;;;4.83;3.43;;;;;;;;;;5114930;28;20441;-70
2022/06/08 08:36:23;;;;;;;3.10;2.87;;;;;;;;;;5115085;28;20509;-69
2022/06/08 08:38:51;;;;;;;3.97;3.57;;;;;;;;;;5114788;28;20446;-70
2022/06/08 08:44:08;;;;;;;3.37;3.07;;;;;;;;;;5114499;28;20887;-69
2022/06/08 08:46:39;;;;;;;3.97;3.00;;;;;;;;;;5114182;28;20561;-69
2022/06/08 08:49:08;;;;;;;3.80;2.67;;;;;;;;;;5114302;28;20561;-69
2022/06/08 08:51:38;;;;;;;3.50;3.10;;;;;;;;;;5114763;28;20774;-69
2022/06/08 08:54:07;;;;;;;5.00;3.10;;;;;;;;;;5113819;28;20470;-69
2022/06/08 08:56:37;;;;;;;4.47;3.20;;;;;;;;;;5113970;28;20453;-69
2022/06/08 08:59:12;;;;;;;3.60;2.90;;;;;;;;;;5114541;28;20472;-69
2022/06/08 09:01:41;;;;;;;2.87;2.60;;;;;;;;;;5114099;28;20460;-69
2022/06/08 09:04:15;;;;;;;2.23;2.03;;;;;;;;;;5114374;28;20527;-70
2022/06/08 09:06:42;;;;;;;2.40;2.20;;;;;;;;;;5114194;28;20551;-69
2022/06/08 09:09:14;;;;;;;3.53;2.40;;;;;;;;;;5114310;28;20447;-69
2022/06/08 09:11:42;;;;;;;2.30;2.07;;;;;;;;;;5114173;28;20451;-69
2022/06/08 09:14:13;;;;;;;2.47;2.27;;;;;;;;;;5114323;28;20799;-69
2022/06/08 09:16:43;;;;;;;3.03;2.83;;;;;;;;;;5114161;28;20438;-69
2022/06/08 09:19:28;;;;;;;3.70;2.83;;;;;;;;;;5113702;28;20449;-69
2022/06/08 09:21:59;;;;;;;5.60;2.97;;;;;;;;;;5113675;28;20450;-70
2022/06/08 09:24:29;;;;;;;3.10;2.23;;;;;;;;;;5114271;28;20431;-69
2022/06/08 09:26:57;;;;;;;7.97;2.80;;;;;;;;;;5114323;28;20501;-69
2022/06/08 09:29:29;;;;;;;2.47;2.27;;;;;;;;;;5113922;28;20465;-70
2022/06/08 09:31:57;;;;;;;3.63;2.10;;;;;;;;;;5114053;28;20429;-69
2022/06/08 09:34:26;;;;;;;6.70;2.10;;;;;;;;;;5113877;28;20527;-69
2022/06/08 09:37:11;;;;;;;4.73;1.90;;;;;;;;;;5113422;28;20952;-69
2022/06/08 09:39:40;;;;;;;2.50;1.80;;;;;;;;;;5114303;28;20824;-70
2022/06/08 09:42:16;;;;;;;3.20;2.03;;;;;;;;;;5113741;28;20833;-69
2022/06/08 09:44:48;;;;;;;3.30;1.80;;;;;;;;;;5113874;28;20521;-69
2022/06/08 09:53:02;;;;;;;5.53;1.73;;;;;;;;;;5113454;28;20874;-69
2022/06/08 09:55:35;;;;;;;3.10;1.93;;;;;;;;;;5114148;28;20514;-69
2022/06/08 09:58:15;;;;;;;1.90;1.73;;;;;;;;;;5113894;28;20457;-69
2022/06/08 10:00:45;;;;;;;2.47;1.90;;;;;;;;;;5113551;28;20972;-69
2022/06/08 10:03:37;;;;;;;1.60;1.50;;;;;;;;;;5113672;28;20519;-69
2022/06/08 10:06:13;;;;;;;1.80;1.70;;;;;;;;;;5097689;28;20473;-69
2022/06/08 10:08:46;;;;;;;1.53;1.43;;;;;;;;;;5117501;28;20425;-69
2022/06/08 10:14:01;;;;;;;1.83;1.73;;;;;;;;;;5114890;28;20512;-69
2022/06/08 10:16:30;;;;;;;2.10;1.90;;;;;;;;;;5117349;28;20438;-69
2022/06/08 10:19:00;;;;;;;3.70;1.93;;;;;;;;;;5117699;28;20667;-69
2022/06/08 10:21:33;;;;;;;3.00;1.90;;;;;;;;;;5117630;28;20506;-69
2022/06/08 10:24:03;;;;;;;3.57;1.90;;;;;;;;;;5117474;28;20430;-70
2022/06/08 10:26:34;;;;;;;1.70;1.60;;;;;;;;;;5117357;28;20444;-69
2022/06/08 10:29:04;;;;;;;2.10;1.60;;;;;;;;;;5117380;28;20423;-69
2022/06/08 10:31:36;;;;;;;2.20;1.70;;;;;;;;;;5117032;28;20520;-69
2022/06/08 10:34:05;;;;;;;1.80;1.57;;;;;;;;;;5116935;28;20424;-70
2022/06/08 10:36:35;;;;;;;3.30;2.00;;;;;;;;;;5117059;28;20530;-70
2022/06/08 10:39:04;;;;;;;2.80;1.73;;;;;;;;;;5117036;28;20940;-70
2022/06/08 10:44:34;;;;;;;3.17;2.07;;;;;;;;;;5054030;28;20830;-69
2022/06/08 10:47:21;;;;;;;1.70;1.60;;;;;;;;;;5053933;28;20485;-70
2022/06/08 10:49:50;;;;;;;2.57;1.63;;;;;;;;;;5090978;28;20470;-69
2022/06/08 10:52:29;;;;;;;1.80;1.70;;;;;;;;;;5116447;28;20435;-69
2022/06/08 10:55:16;;;;;;;2.10;1.90;;;;;;;;;;5116877;28;20513;-69
2022/06/08 10:57:50;;;;;;;1.90;1.70;;;;;;;;;;5116720;28;20940;-69
2022/06/08 11:00:25;;;;;;;7.40;2.30;;;;;;;;;;5116892;28;20419;-69
2022/06/08 11:02:54;;;;;;;4.70;1.90;;;;;;;;;;5117320;28;20838;-69
2022/06/08 11:05:30;;;;;;;2.10;1.93;;;;;;;;;;5116639;28;20819;-69
2022/06/08 11:08:33;;;;;;;2.23;1.70;;;;;;;;;;5116148;28;20550;-69
2022/06/08 11:11:03;;;;;;;3.00;1.83;;;;;;;;;;5033960;28;20517;-69
2022/06/08 11:13:38;;;;;;;2.90;1.60;;;;;;;;;;5033503;28;20908;-69
2022/06/08 11:16:11;;;;;;;2.83;1.50;;;;;;;;;;5077744;28;20434;-69
2022/06/08 11:18:41;;;;;;;2.23;1.70;;;;;;;;;;5116943;28;20451;-69
2022/06/08 11:21:19;;;;;;;4.20;1.90;;;;;;;;;;5116379;28;20779;-69
2022/06/08 11:23:49;;;;;;;4.13;1.77;;;;;;;;;;5116477;28;20521;-70
2022/06/08 11:26:28;;;;;;;1.70;1.60;;;;;;;;;;5116345;28;20426;-70
2022/06/08 11:28:58;;;;;;;3.20;1.93;;;;;;;;;;5116379;28;20506;-69
2022/06/08 11:31:56;;;;;;;4.77;2.10;;;;;;;;;;5116183;28;20993;-69
2022/06/08 11:34:37;;;;;;;5.33;1.80;;;;;;;;;;5033292;28;20423;-69
2022/06/08 11:37:08;;;;;;;2.00;1.30;;;;;;;;;;5105307;28;20549;-69
2022/06/08 11:39:38;;;;;;;2.13;1.70;;;;;;;;;;5116058;28;20956;-69
2022/06/08 11:42:22;;;;;;;3.00;1.93;;;;;;;;;;5115571;28;20968;-69
2022/06/08 11:44:51;;;;;;;2.93;1.83;;;;;;;;;;5115838;28;20427;-69
2022/06/08 11:47:23;;;;;;;1.90;1.80;;;;;;;;;;5115658;28;21060;-69
2022/06/08 11:49:55;;;;;;;4.23;2.43;;;;;;;;;;5115317;28;20532;-69
2022/06/08 11:52:28;;;;;;;9.57;2.50;;;;;;;;;;5115852;28;20423;-70
2022/06/08 11:55:19;;;;;;;2.80;1.90;;;;;;;;;;5115225;28;20436;-70
2022/06/08 11:57:49;;;;;;;5.73;2.40;;;;;;;;;;5095400;28;20479;-70
2022/06/08 12:00:21;;;;;;;4.63;2.10;;;;;;;;;;5115208;28;20510;-69
2022/06/08 12:02:50;;;;;;;2.97;1.90;;;;;;;;;;5115722;28;20428;-71
2022/06/08 12:05:22;;;;;;;2.07;1.77;;;;;;;;;;5115080;28;20527;-70
2022/06/08 12:07:51;;;;;;;3.90;2.20;;;;;;;;;;5114990;28;20462;-69
2022/06/08 12:10:21;;;;;;;1.97;1.87;;;;;;;;;;5115137;28;20526;-71
2022/06/08 12:12:50;;;;;;;2.00;1.83;;;;;;;;;;5115283;28;20453;-70
2022/06/08 12:15:25;;;;;;;7.50;2.23;;;;;;;;;;5115268;28;20538;-70
2022/06/08 12:17:53;;;;;;;2.20;1.67;;;;;;;;;;5115428;28;20515;-71
2022/06/08 12:20:31;;;;;;;4.37;2.20;;;;;;;;;;5115044;28;20810;-69
2022/06/08 12:23:00;;;;;;;5.13;1.60;;;;;;;;;;5114820;28;20523;-71
2022/06/08 12:25:28;;;;;;;4.33;1.73;;;;;;;;;;5115034;28;20452;-70
2022/06/08 12:27:58;;;;;;;3.00;2.23;;;;;;;;;;5114308;28;20479;-70
2022/06/08 12:30:26;;;;;;;2.87;1.70;;;;;;;;;;5114946;28;20541;-70
2022/06/08 12:32:55;;;;;;;6.00;1.50;;;;;;;;;;5114601;28;20953;-70
2022/06/08 12:35:25;;;;;;;5.07;1.90;;;;;;;;;;5114826;28;20450;-71
2022/06/08 12:38:03;;;;;;;2.27;2.07;;;;;;;;;;5114592;28;20480;-71
2022/06/08 12:40:32;;;;;;;3.13;1.70;;;;;;;;;;5114473;28;20458;-70
2022/06/08 12:43:12;;;;;;;3.43;1.60;;;;;;;;;;5114683;28;20532;-71
2022/06/08 12:45:41;;;;;;;2.80;1.80;;;;;;;;;;5114681;28;20452;-71
2022/06/08 12:48:21;;;;;;;4.00;2.20;;;;;;;;;;5114573;28;20818;-70
2022/06/08 12:50:48;;;;;;;2.60;1.70;;;;;;;;;;5114079;28;20466;-70
2022/06/08 12:53:17;;;;;;;3.83;2.20;;;;;;;;;;5113956;28;20535;-69
2022/06/08 12:55:44;;;;;;;8.63;2.50;;;;;;;;;;5114542;28;20850;-69
2022/06/08 12:58:13;;;;;;;8.67;2.17;;;;;;;;;;5113989;28;20488;-71
2022/06/08 13:00:46;;;;;;;4.70;1.90;;;;;;;;;;5114368;28;20438;-71
2022/06/08 13:03:16;;;;;;;7.87;2.30;;;;;;;;;;5114149;28;20432;-69
2022/06/08 13:05:44;;;;;;;7.23;2.30;;;;;;;;;;5114325;28;20438;-71
2022/06/08 13:08:14;;;;;;;6.57;2.77;;;;;;;;;;5113768;28;20550;-67
2022/06/08 13:10:42;;;;;;;6.83;2.70;;;;;;;;;;5114326;28;20434;-68
2022/06/08 13:13:20;;;;;;;5.60;2.83;;;;;;;;;;5114131;28;20436;-68
2022/06/08 13:15:48;;;;;;;5.23;3.20;;;;;;;;;;5114106;28;20451;-68
2022/06/08 13:18:16;;;;;;;10.20;3.90;;;;;;;;;;5113762;28;20539;-67
2022/06/08 13:20:44;;;;;;;7.93;3.90;;;;;;;;;;5113543;28;20913;-67
2022/06/08 13:23:12;;;;;;;10.17;6.20;;;;;;;;;;5113990;28;20441;-67
2022/06/08 13:25:41;;;;;;;9.10;4.93;;;;;;;;;;5113972;28;20438;-68
2022/06/08 13:28:12;;;;;;;11.70;5.47;;;;;;;;;;5113948;28;20477;-68
2022/06/08 13:30:41;;;;;;;7.23;5.10;;;;;;;;;;5114092;28;20448;-68
2022/06/08 13:33:56;;;;;;;8.83;3.93;;;;;;;;;;5113800;28;20492;-68
2022/06/08 13:35:56;;;;;;;9.13;3.90;;;;;;;;;;5113318;28;20437;-68
2022/06/08 13:38:23;;;;;;;8.40;4.00;;;;;;;;;;5113472;28;20460;-71
2022/06/08 13:40:50;;;;;;;8.27;4.17;;;;;;;;;;5113705;28;20528;-71
2022/06/08 13:43:18;;;;;;;5.20;4.00;;;;;;;;;;5113415;28;20445;-72
2022/06/08 13:45:47;;;;;;;11.00;4.77;;;;;;;;;;5113662;28;20808;-71
2022/06/08 13:48:17;;;;;;;14.23;9.20;;;;;;;;;;5113809;28;20575;-76
2022/06/08 13:50:45;;;;;;;15.30;5.80;;;;;;;;;;5113412;28;20565;-69
2022/06/08 13:53:14;;;;;;;5.37;4.47;;;;;;;;;;5113761;28;20887;-68
2022/06/08 13:55:43;;;;;;;12.07;5.80;;;;;;;;;;5130726;28;21047;-69
2022/06/08 13:58:12;;;;;;;10.60;5.00;;;;;;;;;;5133293;28;20441;-69
2022/06/08 14:00:41;;;;;;;5.47;4.53;;;;;;;;;;5133531;28;20809;-69
2022/06/08 14:03:13;;;;;;;9.53;6.40;;;;;;;;;;5133495;28;20527;-68
2022/06/08 14:13:58;;;;;;;10.63;6.13;;;;;;;;;;5133714;28;20420;-68
2022/06/08 14:16:25;;;;;;;8.63;5.53;;;;;;;;;;5133758;28;20890;-69
2022/06/08 14:18:55;;;;;;;9.53;6.43;;;;;;;;;;5133957;28;20555;-69
2022/06/08 14:21:24;;;;;;;12.83;6.20;;;;;;;;;;5133771;28;21000;-70
2022/06/08 14:23:54;;;;;;;7.00;5.70;;;;;;;;;;5133590;28;20480;-69
2022/06/08 14:26:23;;;;;;;9.17;5.97;;;;;;;;;;5133342;28;20522;-70
2022/06/08 14:28:51;;;;;;;6.40;4.67;;;;;;;;;;5133385;28;21016;-70
2022/06/08 14:31:19;;;;;;;7.03;4.20;;;;;;;;;;5133723;28;20437;-71
2022/06/08 14:33:46;;;;;;;9.93;4.20;;;;;;;;;;5133442;28;20937;-71
2022/06/08 14:36:17;;;;;;;4.33;3.93;;;;;;;;;;5133754;28;20439;-71
2022/06/08 14:38:46;;;;;;;8.97;4.87;;;;;;;;;;5134097;28;20436;-72
2022/06/08 14:41:13;;;;;;;7.30;4.17;;;;;;;;;;5133318;28;20445;-72
2022/06/08 14:43:42;;;;;;;5.70;4.57;;;;;;;;;;5133598;28;20535;-71
2022/06/08 14:46:11;;;;;;;7.83;4.40;;;;;;;;;;5133494;28;20444;-72
2022/06/08 14:48:40;;;;;;;7.20;4.57;;;;;;;;;;5132758;28;20483;-72
2022/06/08 14:51:07;;;;;;;7.33;5.07;;;;;;;;;;5134862;27;20921;-72
2022/06/08 14:53:36;;;;;;;5.53;4.70;;;;;;;;;;5136915;27;20937;-72
2022/06/08 14:58:51;;;;;;;7.23;5.10;;;;;;;;;;5137125;27;20400;-73
2022/06/08 15:01:20;;;;;;;7.87;5.17;;;;;;;;;;5137451;27;20792;-72
2022/06/08 15:03:48;;;;;;;6.63;4.67;;;;;;;;;;5136789;27;20985;-72
2022/06/08 15:06:16;;;;;;;5.47;3.67;;;;;;;;;;5136865;27;20636;-72
2022/06/08 15:08:46;;;;;;;6.10;3.87;;;;;;;;;;5136787;27;20516;-72
2022/06/08 15:14:15;;;;;;;6.43;3.60;;;;;;;;;;5099846;27;20429;-72
2022/06/08 15:16:42;;;;;;;7.13;3.60;;;;;;;;;;5136905;27;20437;-72
2022/06/08 15:19:12;;;;;;;3.20;2.93;;;;;;;;;;5137233;27;20444;-72
2022/06/08 15:21:39;;;;;;;3.90;2.40;;;;;;;;;;5136732;27;20977;-72
2022/06/08 15:24:08;;;;;;;5.00;3.43;;;;;;;;;;5136307;27;20532;-72